Simms, Montana
Current Conditions -  °F | °C
As of 3:53 PM on Wednesday 26 Nov 2014 (Local Time) from KGTF Reporting Station
Broken Clouds Broken Clouds  
Wind Chill: 19°   Ceiling: 6000
Heat Index: 29°   Visibility: 10mi
Dew Point: 28°   Wind: 12mph
Humidity: 96%   Direction: 80°E
Pressure: 30.08"   Gusts: NA
Location:  47.5°N, 111.93°W
Report Text: KGTF 262253Z 08010KT 10SM SCT027 SCT045 BKN060 M02/M02 A3008 RMK AO2 SLP232 T10171022
Loading
Personal Weather Stations






























Interactive Weather Map New forecast layout! Learn more

10-Day Weather Forecast

Advertisements
Track Severe Weather on mobile